Time;durP1;ratioP1;P1;durP2;ratioP2;P2;SDS_P1;SDS_P2;PMS_P1;PMS_P2;Temp;Humidity;BMP_temperature;BMP_pressure;BME280_temperature;BME280_humidity;BME280_pressure;Samples;Min_cycle;Max_cycle;Signal;HPM_P1;HPM_P2
2022/03/29 00:00:52;;;;;;;303.77;119.45;;;;;;;;;;5056108;28;20119;-76
2022/03/29 00:03:17;;;;;;;301.13;120.13;;;;;;;;;;5021598;28;20510;-76
2022/03/29 00:05:43;;;;;;;302.95;122.28;;;;;;;;;;5055910;28;20104;-77
2022/03/29 00:08:08;;;;;;;308.23;123.65;;;;;;;;;;5055867;28;20095;-75
2022/03/29 00:10:34;;;;;;;300.60;117.20;;;;;;;;;;5055605;28;20029;-76
2022/03/29 00:12:59;;;;;;;300.48;117.38;;;;;;;;;;5055773;28;20068;-75
2022/03/29 00:15:25;;;;;;;293.30;116.18;;;;;;;;;;5037768;28;20091;-75
2022/03/29 00:17:50;;;;;;;286.63;116.90;;;;;;;;;;5056832;28;20029;-75
2022/03/29 00:20:19;;;;;;;289.92;117.97;;;;;;;;;;5056922;28;20037;-77
2022/03/29 00:22:46;;;;;;;290.58;116.57;;;;;;;;;;5021347;28;20123;-76
2022/03/29 00:25:12;;;;;;;286.95;115.68;;;;;;;;;;5055465;28;20068;-76
2022/03/29 00:27:38;;;;;;;290.27;120.13;;;;;;;;;;5037655;28;20063;-77
2022/03/29 00:30:04;;;;;;;294.30;114.07;;;;;;;;;;5037720;28;20068;-76
2022/03/29 00:32:30;;;;;;;285.10;114.80;;;;;;;;;;5055411;28;20056;-77
2022/03/29 00:34:55;;;;;;;290.15;114.78;;;;;;;;;;5055384;28;20059;-76
2022/03/29 00:37:20;;;;;;;290.95;116.18;;;;;;;;;;5055353;28;20029;-76
2022/03/29 00:39:46;;;;;;;287.67;115.03;;;;;;;;;;5056201;28;20036;-76
2022/03/29 00:42:11;;;;;;;279.05;110.63;;;;;;;;;;5037380;28;20125;-77
2022/03/29 00:44:38;;;;;;;287.00;115.10;;;;;;;;;;5037656;28;20041;-77
2022/03/29 00:47:04;;;;;;;319.80;120.72;;;;;;;;;;5055355;28;20037;-76
2022/03/29 00:49:29;;;;;;;314.25;125.20;;;;;;;;;;5055072;28;20078;-76
2022/03/29 00:51:58;;;;;;;314.15;125.60;;;;;;;;;;5055056;28;20040;-76
2022/03/29 00:54:27;;;;;;;306.20;127.20;;;;;;;;;;5054636;28;20122;-76
2022/03/29 00:56:52;;;;;;;306.42;127.90;;;;;;;;;;5020886;28;20435;-77
2022/03/29 00:59:27;;;;;;;318.75;128.45;;;;;;;;;;5146125;27;20919;-82
2022/03/29 01:01:54;;;;;;;313.73;124.97;;;;;;;;;;5134197;28;20036;-82
2022/03/29 01:04:22;;;;;;;311.55;123.38;;;;;;;;;;5133576;28;20118;-81
2022/03/29 01:06:48;;;;;;;316.15;126.05;;;;;;;;;;5131675;28;20035;-82
2022/03/29 01:09:13;;;;;;;323.80;128.80;;;;;;;;;;5131198;28;20108;-81
2022/03/29 01:11:39;;;;;;;319.42;127.10;;;;;;;;;;5131734;28;20040;-81
2022/03/29 01:14:05;;;;;;;313.95;129.77;;;;;;;;;;5131247;28;20422;-81
2022/03/29 01:19:16;;;;;;;329.05;126.55;;;;;;;;;;5131298;28;20034;-81
2022/03/29 01:21:41;;;;;;;333.65;132.20;;;;;;;;;;5114393;28;20039;-81
2022/03/29 01:24:08;;;;;;;335.13;136.57;;;;;;;;;;5114220;28;20031;-81
2022/03/29 01:26:33;;;;;;;348.70;138.45;;;;;;;;;;5114148;28;20031;-81
2022/03/29 01:28:59;;;;;;;357.25;142.40;;;;;;;;;;5131361;28;20061;-82
2022/03/29 01:31:25;;;;;;;357.60;142.43;;;;;;;;;;5131290;28;20088;-82
2022/03/29 01:33:50;;;;;;;359.73;143.40;;;;;;;;;;5114159;28;20035;-81
2022/03/29 01:36:16;;;;;;;370.10;144.93;;;;;;;;;;5165679;27;20066;-82
2022/03/29 01:38:41;;;;;;;360.85;141.68;;;;;;;;;;5131873;27;20110;-82
2022/03/29 01:41:08;;;;;;;368.40;141.98;;;;;;;;;;5130787;28;20028;-81
2022/03/29 01:43:33;;;;;;;350.35;142.02;;;;;;;;;;5131947;27;20424;-81
2022/03/29 01:45:59;;;;;;;350.90;139.57;;;;;;;;;;5130631;28;20119;-82
2022/03/29 01:48:26;;;;;;;340.65;139.43;;;;;;;;;;5114254;28;20038;-82
2022/03/29 01:50:51;;;;;;;331.52;133.18;;;;;;;;;;5132071;27;20057;-82
2022/03/29 01:53:24;;;;;;;334.10;132.25;;;;;;;;;;5130972;28;20028;-82
2022/03/29 01:55:57;;;;;;;330.60;124.40;;;;;;;;;;5130815;28;20066;-82
2022/03/29 01:58:26;;;;;;;319.13;127.00;;;;;;;;;;5130264;28;20162;-82
2022/03/29 02:00:51;;;;;;;318.55;126.93;;;;;;;;;;5131568;27;20023;-82
2022/03/29 02:03:17;;;;;;;292.85;118.22;;;;;;;;;;5130569;28;20024;-82
2022/03/29 02:05:42;;;;;;;296.15;120.72;;;;;;;;;;5113470;28;20031;-82
2022/03/29 02:08:08;;;;;;;309.98;122.65;;;;;;;;;;5130180;28;20472;-82
2022/03/29 02:10:33;;;;;;;311.08;126.53;;;;;;;;;;5119158;27;20441;-82
2022/03/29 02:12:59;;;;;;;321.77;129.23;;;;;;;;;;5116845;28;20038;-82
2022/03/29 02:15:25;;;;;;;323.88;130.10;;;;;;;;;;5099896;28;20030;-82
2022/03/29 02:17:50;;;;;;;325.77;132.05;;;;;;;;;;5116522;28;20027;-82
2022/03/29 02:20:17;;;;;;;317.83;129.93;;;;;;;;;;5117443;28;20024;-82
2022/03/29 02:22:42;;;;;;;324.13;124.93;;;;;;;;;;5117964;28;20015;-82
2022/03/29 02:25:10;;;;;;;313.02;126.35;;;;;;;;;;5116213;28;20110;-82
2022/03/29 02:27:37;;;;;;;324.13;131.68;;;;;;;;;;5117380;28;20019;-82
2022/03/29 02:30:03;;;;;;;313.23;128.07;;;;;;;;;;5117410;28;20030;-82
2022/03/29 02:32:29;;;;;;;335.40;131.80;;;;;;;;;;5117915;27;20085;-82
2022/03/29 02:34:54;;;;;;;321.10;129.52;;;;;;;;;;5099240;28;20046;-82
2022/03/29 02:37:20;;;;;;;328.63;133.05;;;;;;;;;;5115893;28;20440;-82
2022/03/29 02:39:45;;;;;;;308.75;127.93;;;;;;;;;;5116067;28;20082;-83
2022/03/29 02:42:11;;;;;;;321.90;129.40;;;;;;;;;;5117658;28;20084;-83
2022/03/29 02:44:36;;;;;;;333.15;130.02;;;;;;;;;;5099129;28;20356;-82
2022/03/29 02:47:02;;;;;;;302.90;121.53;;;;;;;;;;5117217;28;20335;-83
2022/03/29 02:49:27;;;;;;;235.75;94.00;;;;;;;;;;5117201;28;20031;-83
2022/03/29 02:51:53;;;;;;;217.10;83.97;;;;;;;;;;5117173;28;20080;-82
2022/03/29 02:54:19;;;;;;;178.23;66.82;;;;;;;;;;5117230;28;20032;-83
2022/03/29 02:56:45;;;;;;;202.70;72.65;;;;;;;;;;5115697;28;20023;-82
2022/03/29 02:59:10;;;;;;;128.27;49.72;;;;;;;;;;5115611;28;20051;-82
2022/03/29 03:01:36;;;;;;;124.63;48.15;;;;;;;;;;5116151;28;20388;-83
2022/03/29 03:04:02;;;;;;;113.45;43.78;;;;;;;;;;5116647;28;20023;-83
2022/03/29 03:06:27;;;;;;;102.20;37.25;;;;;;;;;;5115746;28;20039;-80
2022/03/29 03:08:53;;;;;;;109.65;40.17;;;;;;;;;;5116810;28;20035;-81
2022/03/29 03:11:18;;;;;;;122.93;39.00;;;;;;;;;;5098483;28;20093;-81
2022/03/29 03:13:44;;;;;;;98.18;38.85;;;;;;;;;;5098555;28;20032;-81
2022/03/29 03:16:09;;;;;;;97.10;37.45;;;;;;;;;;5115433;28;20085;-81
2022/03/29 03:18:36;;;;;;;112.10;37.40;;;;;;;;;;5116501;28;20036;-81
2022/03/29 03:21:03;;;;;;;97.53;32.17;;;;;;;;;;5114168;28;20031;-81
2022/03/29 03:23:29;;;;;;;89.47;31.30;;;;;;;;;;5115397;28;20444;-82
2022/03/29 03:25:54;;;;;;;79.38;29.17;;;;;;;;;;5098289;28;20112;-81
2022/03/29 03:28:20;;;;;;;105.63;38.85;;;;;;;;;;5115257;28;20352;-82
2022/03/29 03:30:45;;;;;;;88.35;34.13;;;;;;;;;;5115166;28;20031;-81
2022/03/29 03:33:11;;;;;;;87.97;31.38;;;;;;;;;;5114795;28;20020;-81
2022/03/29 03:35:36;;;;;;;102.20;32.10;;;;;;;;;;5114851;28;20035;-81
2022/03/29 03:38:02;;;;;;;90.40;34.30;;;;;;;;;;5116181;27;20432;-81
2022/03/29 03:40:27;;;;;;;87.35;36.55;;;;;;;;;;5097933;28;20052;-82
2022/03/29 03:42:53;;;;;;;88.43;32.85;;;;;;;;;;5116182;28;20451;-81
2022/03/29 03:48:03;;;;;;;100.38;38.35;;;;;;;;;;5114718;28;20111;-82
2022/03/29 03:50:29;;;;;;;151.30;55.33;;;;;;;;;;5116292;28;20032;-82
2022/03/29 03:52:54;;;;;;;170.13;65.70;;;;;;;;;;5115641;28;20023;-81
2022/03/29 03:55:23;;;;;;;181.50;76.25;;;;;;;;;;5115932;28;20031;-81
2022/03/29 03:57:49;;;;;;;199.32;84.30;;;;;;;;;;5115358;28;20372;-81
2022/03/29 04:00:15;;;;;;;235.82;93.65;;;;;;;;;;5115708;28;20035;-81
2022/03/29 04:02:40;;;;;;;230.80;93.63;;;;;;;;;;5116062;28;20034;-82
2022/03/29 04:05:13;;;;;;;236.00;91.20;;;;;;;;;;5114557;28;20126;-81
2022/03/29 04:07:39;;;;;;;219.93;91.85;;;;;;;;;;5115181;28;20027;-81
2022/03/29 04:10:05;;;;;;;236.93;94.68;;;;;;;;;;5116674;28;20043;-81
2022/03/29 04:12:31;;;;;;;252.07;95.90;;;;;;;;;;5115296;28;20036;-81
2022/03/29 04:14:56;;;;;;;243.00;98.22;;;;;;;;;;5115651;28;20027;-83
2022/03/29 04:17:22;;;;;;;241.38;97.05;;;;;;;;;;5117034;28;20376;-84
2022/03/29 04:19:47;;;;;;;234.25;96.95;;;;;;;;;;5115738;28;20027;-84
2022/03/29 04:22:13;;;;;;;254.45;101.50;;;;;;;;;;5118032;28;20092;-86
2022/03/29 04:24:39;;;;;;;260.85;103.88;;;;;;;;;;5115197;28;20035;-84
2022/03/29 04:27:05;;;;;;;255.05;103.20;;;;;;;;;;5115406;28;20039;-84
2022/03/29 04:29:30;;;;;;;244.45;98.82;;;;;;;;;;5116496;28;20114;-84
2022/03/29 04:31:56;;;;;;;246.65;96.90;;;;;;;;;;5097700;28;20035;-84
2022/03/29 04:34:32;;;;;;;257.10;99.95;;;;;;;;;;5119043;28;20093;-83
2022/03/29 04:36:59;;;;;;;237.70;94.45;;;;;;;;;;5115699;28;20031;-82
2022/03/29 04:39:25;;;;;;;245.70;96.20;;;;;;;;;;5096668;28;20027;-83
2022/03/29 04:41:50;;;;;;;246.50;99.25;;;;;;;;;;5115370;28;20050;-82
2022/03/29 04:44:16;;;;;;;255.88;101.57;;;;;;;;;;5114880;28;20020;-85
2022/03/29 04:46:44;;;;;;;266.48;103.38;;;;;;;;;;5113239;28;20028;-82
2022/03/29 04:49:10;;;;;;;246.10;97.35;;;;;;;;;;5114219;28;20036;-84
2022/03/29 04:51:35;;;;;;;239.98;98.45;;;;;;;;;;5114670;27;20057;-85
2022/03/29 04:54:03;;;;;;;177.00;70.70;;;;;;;;;;5108759;27;20473;-82
2022/03/29 04:56:35;;;;;;;158.68;59.08;;;;;;;;;;5114990;28;20027;-82
2022/03/29 04:59:00;;;;;;;137.70;53.95;;;;;;;;;;5116600;28;20043;-88
2022/03/29 05:01:26;;;;;;;151.80;57.60;;;;;;;;;;5127938;28;20087;-87
2022/03/29 05:04:00;;;;;;;152.63;60.22;;;;;;;;;;5129034;28;20032;-89
2022/03/29 05:06:27;;;;;;;151.50;60.42;;;;;;;;;;5129575;28;20039;-87
2022/03/29 05:08:59;;;;;;;151.30;57.30;;;;;;;;;;5125800;28;20035;-84
2022/03/29 05:11:27;;;;;;;154.82;60.05;;;;;;;;;;5123275;28;20028;-85
2022/03/29 05:13:55;;;;;;;154.20;62.15;;;;;;;;;;5135146;27;20058;-87
2022/03/29 05:16:21;;;;;;;159.88;64.72;;;;;;;;;;5124388;28;20031;-86
2022/03/29 05:18:49;;;;;;;171.38;67.95;;;;;;;;;;5128483;28;20038;-88
2022/03/29 05:21:40;;;;;;;174.57;70.15;;;;;;;;;;5135208;28;20083;-85
2022/03/29 05:24:07;;;;;;;162.70;68.50;;;;;;;;;;5134711;28;20024;-87
2022/03/29 05:26:36;;;;;;;167.25;67.78;;;;;;;;;;5118876;28;20522;-90
2022/03/29 05:29:11;;;;;;;159.43;63.30;;;;;;;;;;5104658;28;20051;-88
2022/03/29 05:31:37;;;;;;;124.25;51.75;;;;;;;;;;5103658;28;20091;-86
2022/03/29 05:34:03;;;;;;;128.73;51.45;;;;;;;;;;5118756;28;20066;-86
2022/03/29 05:36:29;;;;;;;131.35;51.63;;;;;;;;;;5140525;28;20050;-87
2022/03/29 05:38:55;;;;;;;126.93;51.78;;;;;;;;;;5119294;28;20160;-88
2022/03/29 05:41:20;;;;;;;126.70;53.30;;;;;;;;;;5122622;28;20357;-88
2022/03/29 05:43:47;;;;;;;134.85;48.97;;;;;;;;;;5117669;28;20028;-86
2022/03/29 05:52:52;;;;;;;124.15;48.80;;;;;;;;;;5208692;22;20067;-83
2022/03/29 05:55:20;;;;;;;130.25;54.33;;;;;;;;;;5088752;28;20528;-81
2022/03/29 05:57:49;;;;;;;141.07;55.85;;;;;;;;;;5059516;28;20052;-80
2022/03/29 06:00:24;;;;;;;125.03;56.20;;;;;;;;;;5073175;28;20110;-80
2022/03/29 06:03:23;;;;;;;121.20;54.63;;;;;;;;;;5092595;28;20032;-82
2022/03/29 06:06:13;;;;;;;125.97;52.92;;;;;;;;;;5073099;28;20139;-79
2022/03/29 06:08:39;;;;;;;130.13;53.55;;;;;;;;;;5036736;28;20103;-81
2022/03/29 06:11:13;;;;;;;127.10;51.92;;;;;;;;;;5070916;28;20081;-81
2022/03/29 06:13:38;;;;;;;132.85;56.83;;;;;;;;;;5074553;28;20375;-82
2022/03/29 06:16:04;;;;;;;163.20;71.28;;;;;;;;;;5072201;28;20024;-83
2022/03/29 06:18:40;;;;;;;184.88;81.88;;;;;;;;;;5071647;28;20039;-80
2022/03/29 06:21:06;;;;;;;192.48;84.22;;;;;;;;;;5063185;28;20051;-81
2022/03/29 06:23:31;;;;;;;175.30;81.80;;;;;;;;;;5086549;28;20028;-83
2022/03/29 06:25:57;;;;;;;200.38;90.32;;;;;;;;;;5043935;28;20028;-80
2022/03/29 06:28:27;;;;;;;186.50;81.40;;;;;;;;;;5081846;28;20074;-82
2022/03/29 06:30:52;;;;;;;171.35;77.78;;;;;;;;;;5085214;28;20624;-83
2022/03/29 06:33:20;;;;;;;156.55;74.95;;;;;;;;;;5094339;28;20032;-81
2022/03/29 06:35:49;;;;;;;141.98;71.25;;;;;;;;;;5084879;28;20589;-83
2022/03/29 06:38:20;;;;;;;135.85;67.75;;;;;;;;;;5080517;28;20058;-80
2022/03/29 06:40:47;;;;;;;148.32;70.72;;;;;;;;;;5063750;28;20059;-81
2022/03/29 06:43:13;;;;;;;140.55;65.90;;;;;;;;;;5070779;28;20027;-82
2022/03/29 06:48:26;;;;;;;118.45;56.63;;;;;;;;;;5079798;22;20493;-81
2022/03/29 06:50:58;;;;;;;131.43;60.20;;;;;;;;;;5042968;28;20126;-81
2022/03/29 06:56:21;;;;;;;117.20;56.90;;;;;;;;;;4994941;28;20045;-80
2022/03/29 06:58:56;;;;;;;116.63;57.33;;;;;;;;;;5032556;28;20043;-79
2022/03/29 07:01:54;;;;;;;122.53;59.00;;;;;;;;;;5032834;28;20063;-81
2022/03/29 07:04:26;;;;;;;118.70;58.28;;;;;;;;;;5038630;28;20067;-79
2022/03/29 07:06:51;;;;;;;105.72;53.58;;;;;;;;;;5052687;28;20064;-79
2022/03/29 07:12:04;;;;;;;108.53;53.17;;;;;;;;;;5051721;28;20040;-83
2022/03/29 07:17:33;;;;;;;94.35;50.55;;;;;;;;;;5055291;23;20056;-81
2022/03/29 07:23:23;;;;;;;106.50;52.58;;;;;;;;;;5154981;22;20105;-81
2022/03/29 07:26:25;;;;;;;98.88;52.83;;;;;;;;;;5078708;28;20028;-80
2022/03/29 07:28:50;;;;;;;114.13;51.65;;;;;;;;;;5060139;28;20063;-79
2022/03/29 07:31:37;;;;;;;98.95;48.42;;;;;;;;;;5076823;28;20076;-80
2022/03/29 07:34:15;;;;;;;102.60;52.42;;;;;;;;;;5073099;28;20461;-81
2022/03/29 07:37:14;;;;;;;105.80;50.38;;;;;;;;;;5058544;28;20034;-83
2022/03/29 07:39:56;;;;;;;100.35;49.60;;;;;;;;;;5040384;28;20038;-80
2022/03/29 07:42:22;;;;;;;102.28;48.15;;;;;;;;;;5077538;28;20028;-80
2022/03/29 07:47:39;;;;;;;76.18;31.95;;;;;;;;;;4297054;26;20094;-87
2022/03/29 07:50:47;;;;;;;68.30;30.85;;;;;;;;;;5057181;28;20073;-85
2022/03/29 08:03:19;;;;;;;67.80;33.95;;;;;;;;;;5015733;28;20458;-85
2022/03/29 08:09:06;;;;;;;75.78;33.85;;;;;;;;;;5090555;22;20179;-84
2022/03/29 08:11:34;;;;;;;81.63;33.35;;;;;;;;;;5079674;28;20060;-86
2022/03/29 08:14:14;;;;;;;74.82;32.03;;;;;;;;;;5068613;28;20072;-88
2022/03/29 08:17:22;;;;;;;64.68;29.08;;;;;;;;;;5079370;28;20461;-89
2022/03/29 08:19:47;;;;;;;65.40;31.05;;;;;;;;;;5078777;28;20049;-86
2022/03/29 08:22:44;;;;;;;59.33;31.67;;;;;;;;;;5082595;28;20028;-90
2022/03/29 08:25:10;;;;;;;64.43;30.88;;;;;;;;;;5080074;28;20363;-87
2022/03/29 08:27:35;;;;;;;57.67;30.30;;;;;;;;;;5082172;28;20039;-90
2022/03/29 08:30:20;;;;;;;79.15;32.72;;;;;;;;;;5080030;28;20088;-86
2022/03/29 08:32:58;;;;;;;60.97;30.55;;;;;;;;;;5077481;28;20021;-83
2022/03/29 08:35:24;;;;;;;75.68;31.58;;;;;;;;;;5078170;28;20059;-82
2022/03/29 08:37:56;;;;;;;61.40;31.90;;;;;;;;;;5079817;28;20040;-85
2022/03/29 08:40:25;;;;;;;61.28;29.52;;;;;;;;;;5078193;28;20368;-84
2022/03/29 08:42:58;;;;;;;55.30;27.98;;;;;;;;;;5078997;28;20032;-83
2022/03/29 08:45:36;;;;;;;63.00;30.55;;;;;;;;;;5077417;28;20033;-83
2022/03/29 08:48:02;;;;;;;57.78;30.77;;;;;;;;;;5074695;28;20056;-84
2022/03/29 08:50:36;;;;;;;63.28;30.27;;;;;;;;;;5030920;28;20044;-82
2022/03/29 08:53:30;;;;;;;62.45;29.00;;;;;;;;;;5091749;28;20025;-84
2022/03/29 08:55:58;;;;;;;63.35;29.50;;;;;;;;;;5045191;28;20040;-85
2022/03/29 08:58:28;;;;;;;62.85;28.20;;;;;;;;;;5082627;28;20028;-82
2022/03/29 09:00:53;;;;;;;72.53;30.23;;;;;;;;;;5086802;28;20083;-84
2022/03/29 09:03:22;;;;;;;69.15;30.98;;;;;;;;;;5103558;28;20036;-86
2022/03/29 09:05:49;;;;;;;60.07;31.07;;;;;;;;;;5095637;28;20032;-82
2022/03/29 09:08:16;;;;;;;64.57;31.05;;;;;;;;;;5079550;28;20040;-83
2022/03/29 09:13:45;;;;;;;59.95;32.25;;;;;;;;;;5103963;22;20477;-87
2022/03/29 09:16:30;;;;;;;64.85;31.90;;;;;;;;;;5099691;28;20126;-84
2022/03/29 09:18:55;;;;;;;63.33;32.50;;;;;;;;;;5076492;28;20401;-83
2022/03/29 09:21:24;;;;;;;66.10;30.20;;;;;;;;;;5079215;28;20032;-80
2022/03/29 09:24:19;;;;;;;67.88;31.45;;;;;;;;;;5081423;28;20035;-82
2022/03/29 09:26:46;;;;;;;68.15;31.20;;;;;;;;;;5083424;28;20040;-86
2022/03/29 09:29:22;;;;;;;69.65;32.78;;;;;;;;;;5082011;28;20481;-86
2022/03/29 09:32:04;;;;;;;70.72;34.92;;;;;;;;;;5084975;28;20028;-84
2022/03/29 09:34:30;;;;;;;72.45;33.13;;;;;;;;;;5067726;28;20080;-86
2022/03/29 09:36:55;;;;;;;68.45;33.42;;;;;;;;;;5105349;28;20483;-82
2022/03/29 09:39:41;;;;;;;74.95;32.75;;;;;;;;;;5098985;28;20472;-82
2022/03/29 09:42:14;;;;;;;67.32;32.88;;;;;;;;;;5079306;28;20036;-81
2022/03/29 09:44:41;;;;;;;60.50;31.08;;;;;;;;;;5061250;28;20028;-80
2022/03/29 09:47:08;;;;;;;63.28;32.45;;;;;;;;;;5087364;28;20035;-81
2022/03/29 09:50:02;;;;;;;61.17;33.20;;;;;;;;;;5094377;28;20111;-80
2022/03/29 09:52:30;;;;;;;72.03;32.40;;;;;;;;;;5090130;28;20036;-81
2022/03/29 09:55:16;;;;;;;69.68;33.25;;;;;;;;;;5079414;28;20020;-79
2022/03/29 09:57:44;;;;;;;76.78;32.97;;;;;;;;;;5079820;28;20119;-80
2022/03/29 10:00:37;;;;;;;59.67;31.15;;;;;;;;;;5079653;28;20146;-84
2022/03/29 10:03:04;;;;;;;66.75;35.42;;;;;;;;;;5082925;28;20024;-83
2022/03/29 10:05:30;;;;;;;65.70;33.40;;;;;;;;;;5078263;28;20364;-83
2022/03/29 10:10:46;;;;;;;74.75;31.48;;;;;;;;;;5082599;28;20047;-81
2022/03/29 10:13:12;;;;;;;63.95;30.75;;;;;;;;;;5097814;28;20040;-83
2022/03/29 10:15:39;;;;;;;66.95;35.05;;;;;;;;;;5080656;28;20114;-82
2022/03/29 10:18:08;;;;;;;69.25;33.10;;;;;;;;;;5080295;28;20169;-82
2022/03/29 10:20:34;;;;;;;74.32;30.10;;;;;;;;;;5098563;28;20028;-82
2022/03/29 10:23:00;;;;;;;58.30;29.67;;;;;;;;;;5098118;28;20036;-82
2022/03/29 10:25:26;;;;;;;58.78;29.48;;;;;;;;;;5081103;28;20115;-83
2022/03/29 10:27:51;;;;;;;64.00;31.95;;;;;;;;;;5080261;28;20454;-81
2022/03/29 10:30:39;;;;;;;63.72;32.75;;;;;;;;;;5065056;28;20035;-80
2022/03/29 10:33:17;;;;;;;64.35;29.63;;;;;;;;;;5089268;28;20024;-80
2022/03/29 10:35:58;;;;;;;60.00;29.88;;;;;;;;;;5059449;28;20035;-81
2022/03/29 10:38:59;;;;;;;61.22;28.85;;;;;;;;;;5083732;28;20129;-80
2022/03/29 10:41:28;;;;;;;57.67;29.13;;;;;;;;;;4993243;28;20038;-83
2022/03/29 10:44:11;;;;;;;72.50;29.88;;;;;;;;;;5060606;28;20469;-80
2022/03/29 10:46:37;;;;;;;55.83;26.30;;;;;;;;;;5072811;28;20032;-82
2022/03/29 10:49:28;;;;;;;48.33;24.17;;;;;;;;;;5076945;28;20094;-87
2022/03/29 10:52:04;;;;;;;43.33;20.60;;;;;;;;;;5080664;28;20032;-84
2022/03/29 10:54:30;;;;;;;46.88;19.80;;;;;;;;;;5080561;28;20063;-87
2022/03/29 10:56:57;;;;;;;38.28;20.42;;;;;;;;;;5085055;28;20033;-85
2022/03/29 10:59:23;;;;;;;52.72;24.70;;;;;;;;;;5083212;28;20040;-82
2022/03/29 11:02:06;;;;;;;41.22;19.50;;;;;;;;;;5079056;28;20033;-88
2022/03/29 11:05:03;;;;;;;55.33;25.17;;;;;;;;;;5083763;28;20424;-88
2022/03/29 11:07:31;;;;;;;46.97;25.50;;;;;;;;;;5082799;28;20052;-86
2022/03/29 11:10:07;;;;;;;39.15;18.85;;;;;;;;;;5063445;28;20048;-88
2022/03/29 11:12:38;;;;;;;52.33;24.17;;;;;;;;;;5084282;28;20053;-84
2022/03/29 11:15:23;;;;;;;56.30;29.23;;;;;;;;;;5091464;28;20025;-86
2022/03/29 11:17:49;;;;;;;45.83;21.88;;;;;;;;;;5078133;28;20081;-85
2022/03/29 11:20:32;;;;;;;40.38;20.35;;;;;;;;;;5109904;28;20029;-88
2022/03/29 11:23:10;;;;;;;35.17;17.60;;;;;;;;;;5117034;28;20024;-85
2022/03/29 11:25:40;;;;;;;50.78;24.90;;;;;;;;;;5099291;28;20008;-83
2022/03/29 11:28:07;;;;;;;39.70;22.02;;;;;;;;;;5098347;28;20040;-87
2022/03/29 11:30:39;;;;;;;62.92;32.60;;;;;;;;;;5098770;28;20057;-84
2022/03/29 11:33:08;;;;;;;42.97;23.10;;;;;;;;;;5096651;28;20028;-87
2022/03/29 11:35:34;;;;;;;42.85;21.45;;;;;;;;;;5090628;28;20038;-86
2022/03/29 11:38:07;;;;;;;47.70;21.02;;;;;;;;;;5111985;28;20040;-82
2022/03/29 11:40:33;;;;;;;47.50;22.77;;;;;;;;;;5090350;28;20027;-85
2022/03/29 11:43:00;;;;;;;46.85;25.02;;;;;;;;;;5093860;28;20016;-85
2022/03/29 11:45:30;;;;;;;48.53;25.08;;;;;;;;;;5077202;28;20080;-85
2022/03/29 11:47:59;;;;;;;48.53;27.70;;;;;;;;;;5092049;28;20242;-84
2022/03/29 11:50:44;;;;;;;73.00;38.38;;;;;;;;;;5091448;28;20536;-85
2022/03/29 11:53:32;;;;;;;44.63;24.90;;;;;;;;;;5076692;28;20032;-83
2022/03/29 11:56:08;;;;;;;48.85;23.75;;;;;;;;;;5085703;28;20055;-88
2022/03/29 11:58:49;;;;;;;55.67;26.50;;;;;;;;;;5046679;28;20036;-83
2022/03/29 12:01:22;;;;;;;43.42;23.33;;;;;;;;;;5043471;28;20044;-83
2022/03/29 12:03:52;;;;;;;37.92;20.20;;;;;;;;;;5068823;28;20036;-85
2022/03/29 12:06:28;;;;;;;46.30;21.67;;;;;;;;;;5055313;28;20027;-83
2022/03/29 12:09:08;;;;;;;41.95;21.48;;;;;;;;;;5058611;28;20032;-85
2022/03/29 12:11:39;;;;;;;47.40;26.73;;;;;;;;;;5056045;28;20108;-84
2022/03/29 12:14:21;;;;;;;46.00;24.15;;;;;;;;;;5070125;28;20047;-85
2022/03/29 12:17:03;;;;;;;32.17;19.02;;;;;;;;;;5076771;28;20029;-86
2022/03/29 12:19:32;;;;;;;36.08;20.38;;;;;;;;;;5058716;28;20103;-83
2022/03/29 12:22:06;;;;;;;42.90;21.50;;;;;;;;;;5094642;28;20032;-82
2022/03/29 12:24:34;;;;;;;30.38;17.42;;;;;;;;;;5079382;28;20046;-85
2022/03/29 12:27:06;;;;;;;29.45;17.42;;;;;;;;;;5095773;28;20024;-85
2022/03/29 12:29:33;;;;;;;33.40;17.38;;;;;;;;;;5078405;28;20037;-82
2022/03/29 12:32:02;;;;;;;41.65;20.33;;;;;;;;;;5078563;28;20032;-84
2022/03/29 12:34:32;;;;;;;37.33;20.77;;;;;;;;;;5069066;28;20407;-85
2022/03/29 12:37:04;;;;;;;38.28;20.63;;;;;;;;;;5060151;28;20012;-86
2022/03/29 12:39:35;;;;;;;28.90;18.48;;;;;;;;;;5060528;28;20062;-83
2022/03/29 12:42:00;;;;;;;38.75;22.35;;;;;;;;;;5057739;28;20449;-83
2022/03/29 12:44:43;;;;;;;49.70;25.33;;;;;;;;;;5061162;28;20033;-83
2022/03/29 12:47:09;;;;;;;42.65;21.25;;;;;;;;;;5062301;28;20035;-83
2022/03/29 12:49:35;;;;;;;47.90;26.42;;;;;;;;;;5043184;28;20036;-83
2022/03/29 12:52:03;;;;;;;45.83;21.58;;;;;;;;;;5041980;28;20085;-83
2022/03/29 12:54:50;;;;;;;49.90;28.45;;;;;;;;;;5060621;28;20049;-82
2022/03/29 12:57:19;;;;;;;61.00;27.10;;;;;;;;;;5077546;28;20028;-86
2022/03/29 12:59:50;;;;;;;53.27;29.30;;;;;;;;;;5061626;28;20127;-83
2022/03/29 13:02:25;;;;;;;51.88;26.67;;;;;;;;;;5082467;28;20032;-84
2022/03/29 13:04:59;;;;;;;48.25;25.35;;;;;;;;;;5071965;28;20044;-85
2022/03/29 13:07:50;;;;;;;49.08;23.60;;;;;;;;;;5083589;28;20029;-86
2022/03/29 13:10:25;;;;;;;42.65;25.45;;;;;;;;;;5051268;28;20028;-85
2022/03/29 13:12:53;;;;;;;43.20;21.25;;;;;;;;;;5057327;28;20053;-85
2022/03/29 13:15:37;;;;;;;45.05;24.05;;;;;;;;;;5040865;28;20028;-83
2022/03/29 13:20:59;;;;;;;49.33;25.23;;;;;;;;;;5047247;28;20032;-85
2022/03/29 13:23:29;;;;;;;36.90;21.42;;;;;;;;;;5041956;28;20044;-85
2022/03/29 13:29:47;;;;;;;44.60;23.13;;;;;;;;;;5039888;22;20111;-80
2022/03/29 13:35:23;;;;;;;42.10;23.45;;;;;;;;;;5053519;22;20076;-80
2022/03/29 13:37:57;;;;;;;49.08;27.27;;;;;;;;;;5054596;28;20064;-83
2022/03/29 13:42:57;;;;;;;42.58;24.55;;;;;;;;;;5119175;22;20056;-86
2022/03/29 13:45:23;;;;;;;47.22;25.83;;;;;;;;;;4999669;28;20025;-84
2022/03/29 13:47:48;;;;;;;46.35;25.38;;;;;;;;;;5033754;28;20443;-85
2022/03/29 13:50:15;;;;;;;50.08;23.88;;;;;;;;;;4983002;28;20379;-85
2022/03/29 13:52:40;;;;;;;45.08;25.80;;;;;;;;;;5020465;28;20060;-83
2022/03/29 13:55:07;;;;;;;44.35;24.05;;;;;;;;;;5044008;28;20029;-84
2022/03/29 13:57:32;;;;;;;51.20;24.63;;;;;;;;;;4983869;28;20439;-85
2022/03/29 13:59:58;;;;;;;42.92;25.00;;;;;;;;;;5037990;28;20030;-85
2022/03/29 14:02:24;;;;;;;47.78;24.77;;;;;;;;;;5016402;28;20029;-84
2022/03/29 14:04:49;;;;;;;44.63;24.08;;;;;;;;;;5016220;28;20120;-85
2022/03/29 14:07:15;;;;;;;45.75;24.90;;;;;;;;;;5037881;28;20060;-85
2022/03/29 14:09:40;;;;;;;37.92;23.75;;;;;;;;;;5037436;28;20044;-86
2022/03/29 14:12:06;;;;;;;47.28;24.70;;;;;;;;;;5040649;28;20383;-85
2022/03/29 14:14:31;;;;;;;42.45;23.55;;;;;;;;;;5047792;28;20029;-86
2022/03/29 14:16:57;;;;;;;43.60;22.30;;;;;;;;;;5019682;28;20030;-82
2022/03/29 14:19:23;;;;;;;43.70;23.92;;;;;;;;;;5036950;28;20435;-84
2022/03/29 14:21:49;;;;;;;44.50;24.85;;;;;;;;;;5037258;28;20026;-85
2022/03/29 14:24:14;;;;;;;42.20;25.23;;;;;;;;;;5003556;28;20030;-84
2022/03/29 14:26:40;;;;;;;41.08;22.40;;;;;;;;;;5019269;28;20103;-81
2022/03/29 14:29:06;;;;;;;40.63;23.83;;;;;;;;;;5036959;28;20073;-80
2022/03/29 14:31:32;;;;;;;48.65;24.23;;;;;;;;;;5019600;28;20402;-80
2022/03/29 14:33:57;;;;;;;44.53;24.60;;;;;;;;;;5045636;28;20029;-80
2022/03/29 14:36:24;;;;;;;41.85;24.05;;;;;;;;;;5040522;28;20036;-81
2022/03/29 14:38:49;;;;;;;42.15;23.45;;;;;;;;;;5026103;28;20175;-80
2022/03/29 14:41:16;;;;;;;49.20;24.92;;;;;;;;;;5004405;28;20099;-80
2022/03/29 14:43:42;;;;;;;41.83;24.05;;;;;;;;;;5019710;28;20025;-80
2022/03/29 14:46:08;;;;;;;46.85;25.98;;;;;;;;;;4986256;28;20056;-81
2022/03/29 14:48:33;;;;;;;44.55;27.38;;;;;;;;;;5019044;28;20032;-81
2022/03/29 14:51:02;;;;;;;50.15;27.15;;;;;;;;;;5019249;28;20030;-82
2022/03/29 14:53:32;;;;;;;42.45;24.30;;;;;;;;;;5042315;28;20368;-81
2022/03/29 14:55:57;;;;;;;44.87;25.50;;;;;;;;;;5025031;28;20103;-82
2022/03/29 14:58:23;;;;;;;53.22;23.77;;;;;;;;;;5036704;28;20132;-82
2022/03/29 15:00:50;;;;;;;41.00;25.33;;;;;;;;;;5018499;28;20370;-81
2022/03/29 15:03:16;;;;;;;45.72;24.73;;;;;;;;;;5036210;28;20029;-81
2022/03/29 15:05:41;;;;;;;40.65;24.52;;;;;;;;;;5036322;28;20036;-83
2022/03/29 15:08:07;;;;;;;43.65;25.77;;;;;;;;;;5035925;28;20033;-80
2022/03/29 15:10:32;;;;;;;51.08;26.65;;;;;;;;;;5017969;28;20459;-82
2022/03/29 15:12:58;;;;;;;46.33;26.38;;;;;;;;;;5036463;28;20116;-81
2022/03/29 15:15:24;;;;;;;52.08;26.98;;;;;;;;;;5046519;28;20036;-81
2022/03/29 15:17:51;;;;;;;44.20;26.60;;;;;;;;;;5036812;28;20034;-81
2022/03/29 15:20:16;;;;;;;43.75;24.95;;;;;;;;;;5018736;28;20412;-81
2022/03/29 15:22:42;;;;;;;44.33;25.35;;;;;;;;;;5001938;28;20120;-81
2022/03/29 15:25:08;;;;;;;47.45;25.40;;;;;;;;;;5035651;28;20037;-81